createdAt,value
2019-05-14T00:01:06.246Z,1030.39
2019-05-14T00:06:02.341Z,1030.26
2019-05-14T00:10:58.063Z,1030.42
2019-05-14T00:15:54.937Z,1030.28
2019-05-14T00:20:51.174Z,1030.29
2019-05-14T00:25:46.683Z,1030.36
2019-05-14T00:30:42.482Z,1030.33
2019-05-14T00:35:41.259Z,1030.16
2019-05-14T00:40:36.443Z,1030.29
2019-05-14T00:45:32.081Z,1030.26
2019-05-14T00:50:27.780Z,1030.23
2019-05-14T00:55:24.703Z,1030.23
2019-05-14T01:00:22.017Z,1030.24
2019-05-14T01:05:18.239Z,1030.09
2019-05-14T01:10:13.706Z,1030.05
2019-05-14T01:15:11.631Z,1030.12
2019-05-14T01:20:09.173Z,1030.16
2019-05-14T01:25:05.831Z,1030.01
2019-05-14T01:30:02.048Z,1030.03
2019-05-14T01:34:58.530Z,1030.02
2019-05-14T01:39:54.196Z,1029.82
2019-05-14T01:44:51.947Z,1029.70
2019-05-14T01:49:47.331Z,1029.62
2019-05-14T01:54:43.234Z,1029.58
2019-05-14T01:59:39.074Z,1029.56
2019-05-14T02:04:34.673Z,1029.66
2019-05-14T02:09:31.375Z,1029.41
2019-05-14T02:14:26.719Z,1029.56
2019-05-14T02:19:23.501Z,1029.50
2019-05-14T02:24:21.683Z,1029.51
2019-05-14T02:29:17.596Z,1029.46
2019-05-14T02:34:14.393Z,1029.47
2019-05-14T02:39:11.833Z,1029.42
2019-05-14T02:44:09.835Z,1029.50
2019-05-14T02:49:05.371Z,1029.64
2019-05-14T02:54:02.246Z,1029.60
2019-05-14T02:58:59.977Z,1029.51
2019-05-14T03:03:59.852Z,1029.52
2019-05-14T03:08:55.196Z,1029.50
2019-05-14T03:13:50.901Z,1029.42
2019-05-14T03:18:49.931Z,1029.42
2019-05-14T03:23:44.963Z,1029.38
2019-05-14T03:28:40.732Z,1029.43
2019-05-14T03:33:43.003Z,1029.39
2019-05-14T03:38:39.438Z,1029.38
2019-05-14T03:43:35.093Z,1029.36
2019-05-14T03:48:31.289Z,1029.27
2019-05-14T03:53:29.547Z,1029.36
2019-05-14T03:58:29.641Z,1029.37
2019-05-14T04:03:24.689Z,1029.38
2019-05-14T04:08:21.570Z,1029.26
2019-05-14T04:13:19.855Z,1029.19
2019-05-14T04:18:15.377Z,1029.18
2019-05-14T04:23:11.310Z,1029.14
2019-05-14T04:28:09.849Z,1029.12
2019-05-14T04:33:05.839Z,1029.08
2019-05-14T04:38:02.198Z,1029.03
2019-05-14T04:42:59.224Z,1029.06
2019-05-14T04:47:55.979Z,1029.01
2019-05-14T04:52:50.780Z,1029.09
2019-05-14T04:57:49.813Z,1029.05
2019-05-14T05:02:44.373Z,1029.11
2019-05-14T05:07:40.477Z,1029.17
2019-05-14T05:12:38.748Z,1029.01
2019-05-14T05:17:44.185Z,1029.13
2019-05-14T05:22:33.791Z,1029.08
2019-05-14T05:27:29.626Z,1029.17
2019-05-14T05:32:25.623Z,1029.08
2019-05-14T05:37:21.349Z,1029.04
2019-05-14T05:42:18.773Z,1029.14
2019-05-14T05:47:15.292Z,1029.09
2019-05-14T05:52:11.299Z,1029.13
2019-05-14T05:57:09.219Z,1028.97
2019-05-14T06:02:04.319Z,1028.92
2019-05-14T06:07:02.609Z,1028.92
2019-05-14T06:11:59.263Z,1028.91
2019-05-14T06:16:55.839Z,1028.89
2019-05-14T06:21:51.055Z,1028.81
2019-05-14T06:26:48.981Z,1028.84
2019-05-14T06:31:45.248Z,1028.74
2019-05-14T06:36:42.028Z,1028.72
2019-05-14T06:41:42.674Z,1028.78
2019-05-14T06:46:39.100Z,1028.68
2019-05-14T06:51:34.931Z,1028.83
2019-05-14T06:56:31.070Z,1028.72
2019-05-14T07:01:29.212Z,1028.69
2019-05-14T07:06:24.519Z,1028.74
2019-05-14T07:11:20.396Z,1028.70
2019-05-14T07:16:16.559Z,1028.70
2019-05-14T07:21:12.413Z,1028.75
2019-05-14T07:26:09.296Z,1028.77
2019-05-14T07:31:04.989Z,1028.68
2019-05-14T07:36:00.968Z,1028.75
2019-05-14T07:40:58.543Z,1028.73
2019-05-14T07:45:54.025Z,1028.80
2019-05-14T07:50:52.569Z,1028.81
2019-05-14T07:55:51.506Z,1028.76
2019-05-14T08:00:49.701Z,1028.85
2019-05-14T08:05:48.325Z,1028.84
2019-05-14T08:10:45.364Z,1028.76
2019-05-14T08:15:41.415Z,1028.80
2019-05-14T08:20:38.073Z,1028.80
2019-05-14T08:25:35.567Z,1028.71
2019-05-14T08:30:32.775Z,1028.68
2019-05-14T08:35:33.952Z,1028.47
2019-05-14T08:40:28.742Z,1028.35
2019-05-14T08:45:23.826Z,1028.41
2019-05-14T08:50:22.342Z,1028.25
2019-05-14T08:55:18.624Z,1028.18
2019-05-14T09:00:14.781Z,1028.29
2019-05-14T09:05:10.954Z,1028.22
2019-05-14T09:10:05.377Z,1028.17
2019-05-14T09:15:00.150Z,1028.19
2019-05-14T09:20:03.151Z,1028.49
2019-05-14T09:24:55.605Z,1028.14
2019-05-14T09:29:51.365Z,1028.40
2019-05-14T09:34:50.426Z,1028.13
2019-05-14T09:39:44.688Z,1027.92
2019-05-14T09:44:41.536Z,1028.07
2019-05-14T09:49:35.659Z,1028.10
2019-05-14T09:54:30.985Z,1028.12
2019-05-14T09:59:29.287Z,1028.11
2019-05-14T10:04:26.430Z,1027.83
2019-05-14T10:09:20.597Z,1027.85
2019-05-14T10:14:16.049Z,1027.78
2019-05-14T10:19:12.987Z,1027.70
2019-05-14T10:24:09.592Z,1027.73
2019-05-14T10:29:05.411Z,1027.64
2019-05-14T10:34:01.251Z,1027.58
2019-05-14T10:38:58.802Z,1027.65
2019-05-14T10:43:58.942Z,1027.45
2019-05-14T10:48:54.969Z,1027.33
2019-05-14T10:53:51.361Z,1027.38
2019-05-14T10:58:50.650Z,1027.35
2019-05-14T11:03:48.359Z,1027.42
2019-05-14T11:08:43.538Z,1027.28
2019-05-14T11:13:40.396Z,1027.23
2019-05-14T11:18:39.922Z,1027.06
2019-05-14T11:23:33.782Z,1027.09
2019-05-14T11:28:33.683Z,1026.92
2019-05-14T11:33:31.158Z,1026.88
2019-05-14T11:38:36.599Z,1026.71
2019-05-14T11:43:28.793Z,1026.74
2019-05-14T11:48:20.844Z,1026.50
2019-05-14T11:53:20.098Z,1026.56
2019-05-14T11:58:21.021Z,1026.63
2019-05-14T12:03:19.539Z,1026.49
2019-05-14T12:08:18.374Z,1026.47
2019-05-14T12:13:14.623Z,1026.50
2019-05-14T12:18:10.584Z,1026.60
2019-05-14T12:23:08.941Z,1026.59
2019-05-14T12:28:04.329Z,1026.36
2019-05-14T12:32:59.278Z,1026.39
2019-05-14T12:37:58.537Z,1026.23
2019-05-14T12:42:50.594Z,1026.08
2019-05-14T12:47:49.844Z,1025.99
2019-05-14T12:52:48.432Z,1026.09
2019-05-14T12:57:48.398Z,1026.27
2019-05-14T13:02:44.621Z,1026.07
2019-05-14T13:07:42.225Z,1025.95
2019-05-14T13:12:39.126Z,1025.85
2019-05-14T13:17:34.271Z,1025.96
2019-05-14T13:22:41.483Z,1025.75
2019-05-14T13:27:28.965Z,1025.74
2019-05-14T13:32:24.696Z,1025.67
2019-05-14T13:37:19.801Z,1025.56
2019-05-14T13:42:18.647Z,1025.28
2019-05-14T13:47:14.853Z,1025.11
2019-05-14T13:52:11.347Z,1025.25
2019-05-14T13:57:09.064Z,1025.32
2019-05-14T14:02:05.312Z,1025.29
2019-05-14T14:07:01.536Z,1025.16
2019-05-14T14:11:58.775Z,1025.17
2019-05-14T14:16:54.762Z,1025.13
2019-05-14T14:21:49.933Z,1024.93
2019-05-14T14:26:48.941Z,1024.86
2019-05-14T14:31:43.941Z,1024.83
2019-05-14T14:36:39.337Z,1024.87
2019-05-14T14:41:35.328Z,1024.69
2019-05-14T14:46:31.123Z,1024.53
2019-05-14T14:51:28.518Z,1024.41
2019-05-14T14:56:24.163Z,1024.41
2019-05-14T15:01:20.931Z,1024.48
2019-05-14T15:06:17.196Z,1024.52
2019-05-14T15:11:12.775Z,1024.47
2019-05-14T15:16:13.395Z,1024.42
2019-05-14T15:21:09.788Z,1024.32
2019-05-14T15:26:05.322Z,1024.22
2019-05-14T15:31:01.731Z,1024.31
2019-05-14T15:35:58.253Z,1024.22
2019-05-14T15:40:53.955Z,1024.14
2019-05-14T15:45:50.983Z,1024.01
2019-05-14T15:50:50.176Z,1024.07
2019-05-14T15:55:46.120Z,1024.03
2019-05-14T16:00:41.435Z,1024.04
2019-05-14T16:05:39.371Z,1023.98
2019-05-14T16:10:34.771Z,1023.87
2019-05-14T16:15:30.798Z,1023.86
2019-05-14T16:20:29.608Z,1023.79
2019-05-14T16:25:24.747Z,1023.93
2019-05-14T16:30:20.500Z,1023.92
2019-05-14T16:35:16.276Z,1023.84
2019-05-14T16:40:11.987Z,1023.83
2019-05-14T16:45:08.831Z,1023.78
2019-05-14T16:50:05.537Z,1023.74
2019-05-14T16:55:15.504Z,1023.73
2019-05-14T17:00:00.232Z,1023.79
2019-05-14T17:04:55.899Z,1023.73
2019-05-14T17:09:51.822Z,1023.63
2019-05-14T17:14:48.174Z,1023.70
2019-05-14T17:19:44.554Z,1023.48
2019-05-14T17:24:40.529Z,1023.59
2019-05-14T17:29:38.709Z,1023.62
2019-05-14T17:34:33.791Z,1023.66
2019-05-14T17:39:30.591Z,1023.62
2019-05-14T17:44:26.146Z,1023.55
2019-05-14T17:49:22.814Z,1023.62
2019-05-14T17:54:19.041Z,1023.58
2019-05-14T17:59:18.738Z,1023.53
2019-05-14T18:04:13.783Z,1023.47
2019-05-14T18:09:09.606Z,1023.49
2019-05-14T18:14:11.577Z,1023.43
2019-05-14T18:19:04.981Z,1023.44
2019-05-14T18:24:01.682Z,1023.37
2019-05-14T18:28:58.475Z,1023.39
2019-05-14T18:33:53.963Z,1023.35
2019-05-14T18:38:50.868Z,1023.37
2019-05-14T18:43:46.487Z,1023.23
2019-05-14T18:48:42.245Z,1023.19
2019-05-14T18:53:38.657Z,1023.19
2019-05-14T18:58:34.342Z,1023.24
2019-05-14T19:03:29.939Z,1023.15
2019-05-14T19:08:25.810Z,1023.26
2019-05-14T19:13:21.469Z,1023.19
2019-05-14T19:18:19.228Z,1023.25
2019-05-14T19:23:14.782Z,1023.22
2019-05-14T19:28:11.272Z,1023.23
2019-05-14T19:33:08.565Z,1023.14
2019-05-14T19:38:03.637Z,1023.22
2019-05-14T19:42:59.693Z,1023.21
2019-05-14T19:47:58.443Z,1023.28
2019-05-14T19:52:53.471Z,1023.24
2019-05-14T19:57:49.180Z,1023.25
2019-05-14T20:02:48.619Z,1023.23
2019-05-14T20:07:44.699Z,1023.26
2019-05-14T20:12:40.060Z,1023.21
2019-05-14T20:17:37.967Z,1023.31
2019-05-14T20:22:33.752Z,1023.25
2019-05-14T20:27:29.378Z,1023.24
2019-05-14T20:32:26.142Z,1023.23
2019-05-14T20:37:21.660Z,1023.21
2019-05-14T20:42:19.061Z,1023.18
2019-05-14T20:47:14.362Z,1023.10
2019-05-14T20:52:10.117Z,1023.13
2019-05-14T20:57:22.987Z,1023.23
2019-05-14T21:02:05.264Z,1023.10
2019-05-14T21:07:02.485Z,1023.11
2019-05-14T21:11:57.953Z,1023.04
2019-05-14T21:16:53.945Z,1023.10
2019-05-14T21:21:49.808Z,1023.10
2019-05-14T21:26:46.784Z,1023.15
2019-05-14T21:31:42.528Z,1023.16
2019-05-14T21:36:39.170Z,1023.09
2019-05-14T21:41:35.167Z,1023.12
2019-05-14T21:46:31.641Z,1023.07
2019-05-14T21:51:28.400Z,1023.15
2019-05-14T21:56:23.785Z,1023.07
2019-05-14T22:01:19.404Z,1023.09
2019-05-14T22:06:15.124Z,1023.07
2019-05-14T22:11:10.819Z,1023.15
2019-05-14T22:16:08.451Z,1023.16
2019-05-14T22:21:03.932Z,1023.18
2019-05-14T22:25:59.612Z,1023.12
2019-05-14T22:30:55.950Z,1023.10
2019-05-14T22:35:51.439Z,1023.18
2019-05-14T22:40:48.253Z,1023.15
2019-05-14T22:45:43.825Z,1023.16
2019-05-14T22:50:41.470Z,1023.20
2019-05-14T22:55:38.249Z,1023.21
2019-05-14T23:00:34.060Z,1023.23
2019-05-14T23:05:29.898Z,1023.08
2019-05-14T23:10:25.799Z,1023.01
2019-05-14T23:15:21.568Z,1023.07
2019-05-14T23:20:19.493Z,1023.09
2019-05-14T23:25:14.747Z,1023.07
2019-05-14T23:30:10.469Z,1022.97
2019-05-14T23:35:06.192Z,1023.02
2019-05-14T23:40:01.893Z,1022.98
2019-05-14T23:44:58.553Z,1022.89
2019-05-14T23:49:53.973Z,1022.84
2019-05-14T23:54:50.430Z,1022.83
2019-05-14T23:59:48.165Z,1022.79
